sensor_id;sensor_type;location;lat;lon;timestamp;temperature;humidity
8253;DHT22;61313;48.396;10.008;2022-11-14T00:02:10;7.20;99.90
8253;DHT22;61313;48.396;10.008;2022-11-14T00:04:36;7.20;99.90
8253;DHT22;61313;48.396;10.008;2022-11-14T00:07:02;7.30;99.90
8253;DHT22;61313;48.396;10.008;2022-11-14T00:09:28;7.20;99.90
8253;DHT22;61313;48.396;10.008;2022-11-14T00:11:54;7.20;99.90
8253;DHT22;61313;48.396;10.008;2022-11-14T00:14:21;7.20;99.90
8253;DHT22;61313;48.396;10.008;2022-11-14T00:16:47;7.30;99.90
8253;DHT22;61313;48.396;10.008;2022-11-14T00:19:12;7.20;99.90
8253;DHT22;61313;48.396;10.008;2022-11-14T00:21:38;7.30;99.90
8253;DHT22;61313;48.396;10.008;2022-11-14T00:24:04;7.40;99.90
8253;DHT22;61313;48.396;10.008;2022-11-14T00:26:30;7.30;99.90
8253;DHT22;61313;48.396;10.008;2022-11-14T00:28:56;7.30;99.90
8253;DHT22;61313;48.396;10.008;2022-11-14T00:31:22;7.40;99.90
8253;DHT22;61313;48.396;10.008;2022-11-14T00:33:48;7.40;99.90
8253;DHT22;61313;48.396;10.008;2022-11-14T00:36:13;7.40;99.90
8253;DHT22;61313;48.396;10.008;2022-11-14T00:38:39;7.30;1.00
8253;DHT22;61313;48.396;10.008;2022-11-14T00:41:05;7.30;1.00
8253;DHT22;61313;48.396;10.008;2022-11-14T00:43:31;7.30;1.00
8253;DHT22;61313;48.396;10.008;2022-11-14T00:45:56;7.30;1.00
8253;DHT22;61313;48.396;10.008;2022-11-14T00:48:22;7.30;1.00
8253;DHT22;61313;48.396;10.008;2022-11-14T00:50:48;7.30;1.00
8253;DHT22;61313;48.396;10.008;2022-11-14T00:53:13;7.30;1.00
8253;DHT22;61313;48.396;10.008;2022-11-14T00:55:41;7.30;1.00
8253;DHT22;61313;48.396;10.008;2022-11-14T00:58:07;7.20;1.00
8253;DHT22;61313;48.396;10.008;2022-11-14T01:00:33;7.20;1.00
8253;DHT22;61313;48.396;10.008;2022-11-14T01:02:58;7.20;1.00
8253;DHT22;61313;48.396;10.008;2022-11-14T01:05:24;7.20;1.00
8253;DHT22;61313;48.396;10.008;2022-11-14T01:07:50;7.20;1.00
8253;DHT22;61313;48.396;10.008;2022-11-14T01:10:17;7.20;1.00
8253;DHT22;61313;48.396;10.008;2022-11-14T01:12:42;7.30;1.00
8253;DHT22;61313;48.396;10.008;2022-11-14T01:15:09;7.30;1.00
8253;DHT22;61313;48.396;10.008;2022-11-14T01:17:34;7.30;1.00
8253;DHT22;61313;48.396;10.008;2022-11-14T01:20:00;7.30;1.00
8253;DHT22;61313;48.396;10.008;2022-11-14T01:22:26;7.30;1.00
8253;DHT22;61313;48.396;10.008;2022-11-14T01:24:53;7.30;1.00
8253;DHT22;61313;48.396;10.008;2022-11-14T01:27:19;7.30;1.00
8253;DHT22;61313;48.396;10.008;2022-11-14T01:29:45;7.30;1.00
8253;DHT22;61313;48.396;10.008;2022-11-14T01:32:11;7.40;1.00
8253;DHT22;61313;48.396;10.008;2022-11-14T01:34:36;7.40;1.00
8253;DHT22;61313;48.396;10.008;2022-11-14T01:37:02;7.40;1.00
8253;DHT22;61313;48.396;10.008;2022-11-14T01:39:28;7.40;1.00
8253;DHT22;61313;48.396;10.008;2022-11-14T01:41:53;7.30;1.00
8253;DHT22;61313;48.396;10.008;2022-11-14T01:47:11;7.30;1.00
8253;DHT22;61313;48.396;10.008;2022-11-14T01:49:44;7.30;1.00
8253;DHT22;61313;48.396;10.008;2022-11-14T01:52:25;7.20;1.00
8253;DHT22;61313;48.396;10.008;2022-11-14T01:54:58;7.10;1.00
8253;DHT22;61313;48.396;10.008;2022-11-14T01:57:28;7.10;1.00
8253;DHT22;61313;48.396;10.008;2022-11-14T01:59:59;7.20;1.00
8253;DHT22;61313;48.396;10.008;2022-11-14T02:02:25;7.20;1.00
8253;DHT22;61313;48.396;10.008;2022-11-14T02:04:58;7.00;1.00
8253;DHT22;61313;48.396;10.008;2022-11-14T02:07:26;7.00;1.00
8253;DHT22;61313;48.396;10.008;2022-11-14T02:09:54;7.00;1.00
8253;DHT22;61313;48.396;10.008;2022-11-14T02:12:21;7.20;1.00
8253;DHT22;61313;48.396;10.008;2022-11-14T02:14:50;7.20;1.00
8253;DHT22;61313;48.396;10.008;2022-11-14T02:17:17;7.30;1.00
8253;DHT22;61313;48.396;10.008;2022-11-14T02:19:50;7.30;1.00
8253;DHT22;61313;48.396;10.008;2022-11-14T02:22:16;7.30;1.00
8253;DHT22;61313;48.396;10.008;2022-11-14T02:24:42;7.30;1.00
8253;DHT22;61313;48.396;10.008;2022-11-14T02:27:09;7.30;1.00
8253;DHT22;61313;48.396;10.008;2022-11-14T02:29:36;7.30;1.00
8253;DHT22;61313;48.396;10.008;2022-11-14T02:32:02;7.30;1.00
8253;DHT22;61313;48.396;10.008;2022-11-14T02:34:28;7.30;1.00
8253;DHT22;61313;48.396;10.008;2022-11-14T02:36:55;7.40;1.00
8253;DHT22;61313;48.396;10.008;2022-11-14T02:39:21;7.50;1.00
8253;DHT22;61313;48.396;10.008;2022-11-14T02:41:48;7.30;1.00
8253;DHT22;61313;48.396;10.008;2022-11-14T02:44:13;7.10;1.00
8253;DHT22;61313;48.396;10.008;2022-11-14T02:46:39;7.10;1.00
8253;DHT22;61313;48.396;10.008;2022-11-14T02:49:05;7.10;1.00
8253;DHT22;61313;48.396;10.008;2022-11-14T02:51:30;7.10;1.00
8253;DHT22;61313;48.396;10.008;2022-11-14T02:53:56;7.10;1.00
8253;DHT22;61313;48.396;10.008;2022-11-14T02:56:22;7.10;1.00
8253;DHT22;61313;48.396;10.008;2022-11-14T02:58:47;7.20;1.00
8253;DHT22;61313;48.396;10.008;2022-11-14T03:01:13;7.10;1.00
8253;DHT22;61313;48.396;10.008;2022-11-14T03:03:39;7.20;1.00
8253;DHT22;61313;48.396;10.008;2022-11-14T03:06:04;7.20;1.00
8253;DHT22;61313;48.396;10.008;2022-11-14T03:08:31;7.20;1.00
8253;DHT22;61313;48.396;10.008;2022-11-14T03:11:06;7.10;1.00
8253;DHT22;61313;48.396;10.008;2022-11-14T03:13:32;7.30;1.00
8253;DHT22;61313;48.396;10.008;2022-11-14T03:16:04;7.20;1.00
8253;DHT22;61313;48.396;10.008;2022-11-14T03:18:30;7.30;1.00
8253;DHT22;61313;48.396;10.008;2022-11-14T03:20:56;7.30;1.00
8253;DHT22;61313;48.396;10.008;2022-11-14T03:23:22;7.30;1.00
8253;DHT22;61313;48.396;10.008;2022-11-14T03:25:47;7.30;1.00
8253;DHT22;61313;48.396;10.008;2022-11-14T03:28:13;7.40;1.00
8253;DHT22;61313;48.396;10.008;2022-11-14T03:30:39;7.30;1.00
8253;DHT22;61313;48.396;10.008;2022-11-14T03:33:04;7.30;1.00
8253;DHT22;61313;48.396;10.008;2022-11-14T03:35:30;7.30;1.00
8253;DHT22;61313;48.396;10.008;2022-11-14T03:37:56;7.30;1.00
8253;DHT22;61313;48.396;10.008;2022-11-14T03:40:21;7.30;1.00
8253;DHT22;61313;48.396;10.008;2022-11-14T03:42:47;7.20;1.00
8253;DHT22;61313;48.396;10.008;2022-11-14T03:45:12;7.30;1.00
8253;DHT22;61313;48.396;10.008;2022-11-14T03:47:38;7.30;1.00
8253;DHT22;61313;48.396;10.008;2022-11-14T03:50:04;7.20;1.00
8253;DHT22;61313;48.396;10.008;2022-11-14T03:52:30;7.10;1.00
8253;DHT22;61313;48.396;10.008;2022-11-14T03:54:56;7.00;1.00
8253;DHT22;61313;48.396;10.008;2022-11-14T03:57:21;7.00;1.00
8253;DHT22;61313;48.396;10.008;2022-11-14T03:59:47;7.00;1.00
8253;DHT22;61313;48.396;10.008;2022-11-14T04:02:12;7.10;1.00
8253;DHT22;61313;48.396;10.008;2022-11-14T04:04:38;7.10;1.00
8253;DHT22;61313;48.396;10.008;2022-11-14T04:07:04;7.10;1.00
8253;DHT22;61313;48.396;10.008;2022-11-14T04:09:30;7.10;1.00
8253;DHT22;61313;48.396;10.008;2022-11-14T04:11:56;7.20;1.00
8253;DHT22;61313;48.396;10.008;2022-11-14T04:14:22;7.30;1.00
8253;DHT22;61313;48.396;10.008;2022-11-14T04:16:47;7.30;1.00
8253;DHT22;61313;48.396;10.008;2022-11-14T04:19:13;7.30;1.00
8253;DHT22;61313;48.396;10.008;2022-11-14T04:21:39;7.40;1.00
8253;DHT22;61313;48.396;10.008;2022-11-14T04:24:04;7.30;1.00
8253;DHT22;61313;48.396;10.008;2022-11-14T04:26:30;7.40;1.00
8253;DHT22;61313;48.396;10.008;2022-11-14T04:28:56;7.40;1.00
8253;DHT22;61313;48.396;10.008;2022-11-14T04:31:22;7.50;1.00
8253;DHT22;61313;48.396;10.008;2022-11-14T04:33:47;7.50;1.00
8253;DHT22;61313;48.396;10.008;2022-11-14T04:36:13;7.50;1.00
8253;DHT22;61313;48.396;10.008;2022-11-14T04:38:39;7.40;1.00
8253;DHT22;61313;48.396;10.008;2022-11-14T04:41:04;7.40;1.00
8253;DHT22;61313;48.396;10.008;2022-11-14T04:43:30;7.50;1.00
8253;DHT22;61313;48.396;10.008;2022-11-14T04:45:55;7.50;1.00
8253;DHT22;61313;48.396;10.008;2022-11-14T04:48:21;7.50;1.00
8253;DHT22;61313;48.396;10.008;2022-11-14T04:50:47;7.50;1.00
8253;DHT22;61313;48.396;10.008;2022-11-14T04:53:12;7.40;1.00
8253;DHT22;61313;48.396;10.008;2022-11-14T04:55:38;7.30;1.00
8253;DHT22;61313;48.396;10.008;2022-11-14T04:58:04;7.30;1.00
8253;DHT22;61313;48.396;10.008;2022-11-14T05:00:30;7.30;1.00
8253;DHT22;61313;48.396;10.008;2022-11-14T05:02:57;7.40;1.00
8253;DHT22;61313;48.396;10.008;2022-11-14T05:05:23;7.30;1.00
8253;DHT22;61313;48.396;10.008;2022-11-14T05:07:49;7.30;1.00
8253;DHT22;61313;48.396;10.008;2022-11-14T05:10:15;7.40;1.00
8253;DHT22;61313;48.396;10.008;2022-11-14T05:12:40;7.50;1.00
8253;DHT22;61313;48.396;10.008;2022-11-14T05:15:06;7.50;1.00
8253;DHT22;61313;48.396;10.008;2022-11-14T05:17:32;7.50;1.00
8253;DHT22;61313;48.396;10.008;2022-11-14T05:19:58;7.60;1.00
8253;DHT22;61313;48.396;10.008;2022-11-14T05:22:24;7.60;1.00
8253;DHT22;61313;48.396;10.008;2022-11-14T05:24:49;7.60;1.00
8253;DHT22;61313;48.396;10.008;2022-11-14T05:27:15;7.40;1.00
8253;DHT22;61313;48.396;10.008;2022-11-14T05:29:40;7.50;1.00
8253;DHT22;61313;48.396;10.008;2022-11-14T05:32:06;7.60;1.00
8253;DHT22;61313;48.396;10.008;2022-11-14T05:34:32;7.60;1.00
8253;DHT22;61313;48.396;10.008;2022-11-14T05:36:57;7.60;1.00
8253;DHT22;61313;48.396;10.008;2022-11-14T05:39:23;7.60;1.00
8253;DHT22;61313;48.396;10.008;2022-11-14T05:41:49;7.60;1.00
8253;DHT22;61313;48.396;10.008;2022-11-14T05:44:14;7.70;1.00
8253;DHT22;61313;48.396;10.008;2022-11-14T05:46:40;7.70;1.00
8253;DHT22;61313;48.396;10.008;2022-11-14T05:49:06;7.70;1.00
8253;DHT22;61313;48.396;10.008;2022-11-14T05:51:31;7.70;1.00
8253;DHT22;61313;48.396;10.008;2022-11-14T05:53:57;7.70;1.00
8253;DHT22;61313;48.396;10.008;2022-11-14T05:56:23;7.70;1.00
8253;DHT22;61313;48.396;10.008;2022-11-14T05:58:48;7.60;1.00
8253;DHT22;61313;48.396;10.008;2022-11-14T06:01:17;7.60;1.00
8253;DHT22;61313;48.396;10.008;2022-11-14T06:03:45;7.60;1.00
8253;DHT22;61313;48.396;10.008;2022-11-14T06:06:16;7.50;1.00
8253;DHT22;61313;48.396;10.008;2022-11-14T06:08:42;7.30;1.00
8253;DHT22;61313;48.396;10.008;2022-11-14T06:11:14;7.50;1.00
8253;DHT22;61313;48.396;10.008;2022-11-14T06:13:41;7.60;1.00
8253;DHT22;61313;48.396;10.008;2022-11-14T06:16:10;7.60;1.00
8253;DHT22;61313;48.396;10.008;2022-11-14T06:18:37;7.60;1.00
8253;DHT22;61313;48.396;10.008;2022-11-14T06:21:09;7.70;1.00
8253;DHT22;61313;48.396;10.008;2022-11-14T06:23:35;7.70;1.00
8253;DHT22;61313;48.396;10.008;2022-11-14T06:26:06;7.60;1.00
8253;DHT22;61313;48.396;10.008;2022-11-14T06:28:32;7.60;1.00
8253;DHT22;61313;48.396;10.008;2022-11-14T06:30:59;7.70;1.00
8253;DHT22;61313;48.396;10.008;2022-11-14T06:33:29;7.70;1.00
8253;DHT22;61313;48.396;10.008;2022-11-14T06:35:59;7.60;1.00
8253;DHT22;61313;48.396;10.008;2022-11-14T06:38:25;7.60;1.00
8253;DHT22;61313;48.396;10.008;2022-11-14T06:40:51;7.60;1.00
8253;DHT22;61313;48.396;10.008;2022-11-14T06:43:17;7.60;1.00
8253;DHT22;61313;48.396;10.008;2022-11-14T06:45:42;7.50;1.00
8253;DHT22;61313;48.396;10.008;2022-11-14T06:48:08;8.20;1.00
8253;DHT22;61313;48.396;10.008;2022-11-14T06:50:34;8.10;1.00
8253;DHT22;61313;48.396;10.008;2022-11-14T06:52:59;7.90;1.00
8253;DHT22;61313;48.396;10.008;2022-11-14T06:55:25;7.90;1.00
8253;DHT22;61313;48.396;10.008;2022-11-14T06:57:54;8.00;1.00
8253;DHT22;61313;48.396;10.008;2022-11-14T07:00:20;8.00;1.00
8253;DHT22;61313;48.396;10.008;2022-11-14T07:02:47;8.00;1.00
8253;DHT22;61313;48.396;10.008;2022-11-14T07:05:13;8.00;1.00
8253;DHT22;61313;48.396;10.008;2022-11-14T07:07:39;8.00;1.00
8253;DHT22;61313;48.396;10.008;2022-11-14T07:10:05;8.10;1.00
8253;DHT22;61313;48.396;10.008;2022-11-14T07:12:31;8.10;1.00
8253;DHT22;61313;48.396;10.008;2022-11-14T07:14:57;7.80;1.00
8253;DHT22;61313;48.396;10.008;2022-11-14T07:17:23;7.70;1.00
8253;DHT22;61313;48.396;10.008;2022-11-14T07:19:49;7.80;1.00
8253;DHT22;61313;48.396;10.008;2022-11-14T07:22:15;7.80;1.00
8253;DHT22;61313;48.396;10.008;2022-11-14T07:24:40;7.70;1.00
8253;DHT22;61313;48.396;10.008;2022-11-14T07:27:06;7.80;1.00
8253;DHT22;61313;48.396;10.008;2022-11-14T07:29:35;7.80;1.00
8253;DHT22;61313;48.396;10.008;2022-11-14T07:32:01;7.80;1.00
8253;DHT22;61313;48.396;10.008;2022-11-14T07:34:27;7.90;1.00
8253;DHT22;61313;48.396;10.008;2022-11-14T07:36:52;7.80;1.00
8253;DHT22;61313;48.396;10.008;2022-11-14T07:39:19;7.80;1.00
8253;DHT22;61313;48.396;10.008;2022-11-14T07:41:45;8.00;1.00
8253;DHT22;61313;48.396;10.008;2022-11-14T07:44:10;8.10;1.00
8253;DHT22;61313;48.396;10.008;2022-11-14T07:46:36;8.00;1.00
8253;DHT22;61313;48.396;10.008;2022-11-14T07:49:02;8.00;1.00
8253;DHT22;61313;48.396;10.008;2022-11-14T07:51:27;8.10;1.00
8253;DHT22;61313;48.396;10.008;2022-11-14T07:53:53;8.10;1.00
8253;DHT22;61313;48.396;10.008;2022-11-14T07:56:19;8.30;1.00
8253;DHT22;61313;48.396;10.008;2022-11-14T07:58:46;8.50;1.00
8253;DHT22;61313;48.396;10.008;2022-11-14T08:01:13;8.50;1.00
8253;DHT22;61313;48.396;10.008;2022-11-14T08:03:39;8.40;1.00
8253;DHT22;61313;48.396;10.008;2022-11-14T08:06:08;8.40;1.00
8253;DHT22;61313;48.396;10.008;2022-11-14T08:08:34;8.10;1.00
8253;DHT22;61313;48.396;10.008;2022-11-14T08:11:00;8.20;1.00
8253;DHT22;61313;48.396;10.008;2022-11-14T08:13:26;8.00;1.00
8253;DHT22;61313;48.396;10.008;2022-11-14T08:15:53;7.90;1.00
8253;DHT22;61313;48.396;10.008;2022-11-14T08:18:19;7.90;1.00
8253;DHT22;61313;48.396;10.008;2022-11-14T08:20:45;7.90;1.00
8253;DHT22;61313;48.396;10.008;2022-11-14T08:23:11;7.90;1.00
8253;DHT22;61313;48.396;10.008;2022-11-14T08:25:37;7.80;1.00
8253;DHT22;61313;48.396;10.008;2022-11-14T08:28:06;7.70;1.00
8253;DHT22;61313;48.396;10.008;2022-11-14T08:30:32;7.70;1.00
8253;DHT22;61313;48.396;10.008;2022-11-14T08:33:00;7.70;1.00
8253;DHT22;61313;48.396;10.008;2022-11-14T08:35:27;7.70;1.00
8253;DHT22;61313;48.396;10.008;2022-11-14T08:37:53;7.70;1.00
8253;DHT22;61313;48.396;10.008;2022-11-14T08:40:19;7.70;1.00
8253;DHT22;61313;48.396;10.008;2022-11-14T08:42:44;7.80;1.00
8253;DHT22;61313;48.396;10.008;2022-11-14T08:45:10;7.60;1.00
8253;DHT22;61313;48.396;10.008;2022-11-14T08:47:36;7.70;1.00
8253;DHT22;61313;48.396;10.008;2022-11-14T08:50:02;7.60;1.00
8253;DHT22;61313;48.396;10.008;2022-11-14T08:52:28;7.60;1.00
8253;DHT22;61313;48.396;10.008;2022-11-14T08:54:53;7.70;1.00
8253;DHT22;61313;48.396;10.008;2022-11-14T08:57:19;7.90;1.00
8253;DHT22;61313;48.396;10.008;2022-11-14T08:59:44;8.00;1.00
8253;DHT22;61313;48.396;10.008;2022-11-14T09:02:11;7.90;1.00
8253;DHT22;61313;48.396;10.008;2022-11-14T09:04:38;7.90;1.00
8253;DHT22;61313;48.396;10.008;2022-11-14T09:07:04;8.00;1.00
8253;DHT22;61313;48.396;10.008;2022-11-14T09:09:30;8.10;1.00
8253;DHT22;61313;48.396;10.008;2022-11-14T09:11:55;8.10;1.00
8253;DHT22;61313;48.396;10.008;2022-11-14T09:14:21;8.30;1.00
8253;DHT22;61313;48.396;10.008;2022-11-14T09:16:47;8.40;1.00
8253;DHT22;61313;48.396;10.008;2022-11-14T09:19:12;8.40;1.00
8253;DHT22;61313;48.396;10.008;2022-11-14T09:21:38;8.60;1.00
8253;DHT22;61313;48.396;10.008;2022-11-14T09:24:04;8.70;1.00
8253;DHT22;61313;48.396;10.008;2022-11-14T09:26:30;8.90;1.00
8253;DHT22;61313;48.396;10.008;2022-11-14T09:28:55;9.00;1.00
8253;DHT22;61313;48.396;10.008;2022-11-14T09:31:21;8.80;1.00
8253;DHT22;61313;48.396;10.008;2022-11-14T09:33:47;8.90;1.00
8253;DHT22;61313;48.396;10.008;2022-11-14T09:36:13;9.10;1.00
8253;DHT22;61313;48.396;10.008;2022-11-14T09:38:41;9.90;1.00
8253;DHT22;61313;48.396;10.008;2022-11-14T09:46:20;14.00;1.00
8253;DHT22;61313;48.396;10.008;2022-11-14T09:48:47;14.30;1.00
8253;DHT22;61313;48.396;10.008;2022-11-14T09:51:20;14.10;1.00
8253;DHT22;61313;48.396;10.008;2022-11-14T09:56:37;12.00;1.00
8253;DHT22;61313;48.396;10.008;2022-11-14T09:59:02;11.50;1.00
8253;DHT22;61313;48.396;10.008;2022-11-14T10:01:40;11.10;99.90
8253;DHT22;61313;48.396;10.008;2022-11-14T10:07:13;10.90;99.90
8253;DHT22;61313;48.396;10.008;2022-11-14T10:09:53;11.00;1.00
8253;DHT22;61313;48.396;10.008;2022-11-14T10:12:24;11.70;29.90
8253;DHT22;61313;48.396;10.008;2022-11-14T10:20:20;12.50;1.00
8253;DHT22;61313;48.396;10.008;2022-11-14T10:28:32;11.80;1.00
8253;DHT22;61313;48.396;10.008;2022-11-14T10:31:36;11.80;1.00
8253;DHT22;61313;48.396;10.008;2022-11-14T10:41:43;11.50;99.90
8253;DHT22;61313;48.396;10.008;2022-11-14T10:44:17;11.40;1.00
8253;DHT22;61313;48.396;10.008;2022-11-14T10:46:49;11.40;1.00
8253;DHT22;61313;48.396;10.008;2022-11-14T10:49:24;11.30;41.70
8253;DHT22;61313;48.396;10.008;2022-11-14T10:51:57;11.20;1.00
8253;DHT22;61313;48.396;10.008;2022-11-14T10:57:19;11.10;99.90
8253;DHT22;61313;48.396;10.008;2022-11-14T10:59:45;11.20;1.00
8253;DHT22;61313;48.396;10.008;2022-11-14T11:02:12;11.20;99.90
8253;DHT22;61313;48.396;10.008;2022-11-14T11:04:39;11.40;99.90
8253;DHT22;61313;48.396;10.008;2022-11-14T11:09:35;11.40;99.90
8253;DHT22;61313;48.396;10.008;2022-11-14T11:12:22;11.20;1.00
8253;DHT22;61313;48.396;10.008;2022-11-14T11:15:06;11.10;32.70
8253;DHT22;61313;48.396;10.008;2022-11-14T11:17:33;11.10;99.90
8253;DHT22;61313;48.396;10.008;2022-11-14T11:25:35;11.90;99.90
8253;DHT22;61313;48.396;10.008;2022-11-14T11:30:36;11.70;99.90
8253;DHT22;61313;48.396;10.008;2022-11-14T11:35:48;11.70;99.90
8253;DHT22;61313;48.396;10.008;2022-11-14T11:38:16;11.70;99.90
8253;DHT22;61313;48.396;10.008;2022-11-14T11:40:47;11.90;99.90
8253;DHT22;61313;48.396;10.008;2022-11-14T11:43:42;12.00;99.90
8253;DHT22;61313;48.396;10.008;2022-11-14T11:46:28;12.10;99.90
8253;DHT22;61313;48.396;10.008;2022-11-14T11:49:04;12.20;99.90
8253;DHT22;61313;48.396;10.008;2022-11-14T11:51:32;12.20;99.90
8253;DHT22;61313;48.396;10.008;2022-11-14T11:54:10;12.10;1.00
8253;DHT22;61313;48.396;10.008;2022-11-14T11:56:39;12.10;99.90
8253;DHT22;61313;48.396;10.008;2022-11-14T11:59:24;12.10;99.90
8253;DHT22;61313;48.396;10.008;2022-11-14T12:01:51;12.20;99.90
8253;DHT22;61313;48.396;10.008;2022-11-14T12:04:17;12.30;99.90
8253;DHT22;61313;48.396;10.008;2022-11-14T12:07:01;12.60;12.20
8253;DHT22;61313;48.396;10.008;2022-11-14T12:09:37;12.70;1.00
8253;DHT22;61313;48.396;10.008;2022-11-14T12:12:15;12.60;1.00
8253;DHT22;61313;48.396;10.008;2022-11-14T12:14:54;12.60;1.00
8253;DHT22;61313;48.396;10.008;2022-11-14T12:17:50;12.60;1.00
8253;DHT22;61313;48.396;10.008;2022-11-14T12:31:02;12.20;99.90
8253;DHT22;61313;48.396;10.008;2022-11-14T12:33:32;12.20;99.90
8253;DHT22;61313;48.396;10.008;2022-11-14T12:36:01;12.10;99.90
8253;DHT22;61313;48.396;10.008;2022-11-14T12:38:42;12.10;99.90
8253;DHT22;61313;48.396;10.008;2022-11-14T12:41:09;12.10;99.90
8253;DHT22;61313;48.396;10.008;2022-11-14T12:46:06;12.20;99.90
8253;DHT22;61313;48.396;10.008;2022-11-14T12:48:38;12.20;99.90
8253;DHT22;61313;48.396;10.008;2022-11-14T12:53:52;12.50;99.90
8253;DHT22;61313;48.396;10.008;2022-11-14T13:15:46;13.10;1.00
8253;DHT22;61313;48.396;10.008;2022-11-14T13:18:30;13.00;1.00
8253;DHT22;61313;48.396;10.008;2022-11-14T13:24:06;12.90;1.00
8253;DHT22;61313;48.396;10.008;2022-11-14T13:28:57;12.80;99.90
8253;DHT22;61313;48.396;10.008;2022-11-14T13:31:42;12.80;99.90
8253;DHT22;61313;48.396;10.008;2022-11-14T13:40:03;12.90;1.00
8253;DHT22;61313;48.396;10.008;2022-11-14T13:50:50;12.90;1.00
8253;DHT22;61313;48.396;10.008;2022-11-14T13:53:21;12.90;1.00
8253;DHT22;61313;48.396;10.008;2022-11-14T14:09:26;14.40;1.00
8253;DHT22;61313;48.396;10.008;2022-11-14T14:25:17;13.00;99.90
8253;DHT22;61313;48.396;10.008;2022-11-14T14:30:27;12.90;99.90
8253;DHT22;61313;48.396;10.008;2022-11-14T14:33:14;12.80;99.90
8253;DHT22;61313;48.396;10.008;2022-11-14T14:35:51;12.80;99.90
8253;DHT22;61313;48.396;10.008;2022-11-14T14:38:25;12.70;1.00
8253;DHT22;61313;48.396;10.008;2022-11-14T14:40:55;12.70;1.00
8253;DHT22;61313;48.396;10.008;2022-11-14T14:43:33;12.60;51.40
8253;DHT22;61313;48.396;10.008;2022-11-14T14:45:59;12.60;99.90
8253;DHT22;61313;48.396;10.008;2022-11-14T14:48:27;12.60;1.00
8253;DHT22;61313;48.396;10.008;2022-11-14T14:50:57;13.30;1.00
8253;DHT22;61313;48.396;10.008;2022-11-14T14:53:24;13.50;1.00
8253;DHT22;61313;48.396;10.008;2022-11-14T14:55:59;13.70;1.00
8253;DHT22;61313;48.396;10.008;2022-11-14T14:58:28;14.00;1.00
8253;DHT22;61313;48.396;10.008;2022-11-14T15:01:01;14.30;99.90
8253;DHT22;61313;48.396;10.008;2022-11-14T15:03:54;14.40;99.90
8253;DHT22;61313;48.396;10.008;2022-11-14T15:06:31;14.40;1.00
8253;DHT22;61313;48.396;10.008;2022-11-14T15:09:07;13.70;1.00
8253;DHT22;61313;48.396;10.008;2022-11-14T15:11:41;13.20;99.90
8253;DHT22;61313;48.396;10.008;2022-11-14T15:14:19;12.90;1.00
8253;DHT22;61313;48.396;10.008;2022-11-14T15:16:47;12.70;1.00
8253;DHT22;61313;48.396;10.008;2022-11-14T15:19:17;12.60;1.00
8253;DHT22;61313;48.396;10.008;2022-11-14T15:21:44;12.60;1.00
8253;DHT22;61313;48.396;10.008;2022-11-14T15:24:20;12.50;1.00
8253;DHT22;61313;48.396;10.008;2022-11-14T15:26:48;12.40;94.10
8253;DHT22;61313;48.396;10.008;2022-11-14T15:29:26;12.40;99.90
8253;DHT22;61313;48.396;10.008;2022-11-14T15:32:00;12.30;1.00
8253;DHT22;61313;48.396;10.008;2022-11-14T15:34:35;12.30;1.00
8253;DHT22;61313;48.396;10.008;2022-11-14T15:39:31;12.20;1.00
8253;DHT22;61313;48.396;10.008;2022-11-14T15:44:54;12.10;1.00
8253;DHT22;61313;48.396;10.008;2022-11-14T15:50:04;12.00;1.00
8253;DHT22;61313;48.396;10.008;2022-11-14T15:52:37;12.00;18.60
8253;DHT22;61313;48.396;10.008;2022-11-14T15:55:20;12.00;1.00
8253;DHT22;61313;48.396;10.008;2022-11-14T15:57:46;12.20;99.90
8253;DHT22;61313;48.396;10.008;2022-11-14T16:00:13;12.10;1.00
8253;DHT22;61313;48.396;10.008;2022-11-14T16:02:45;12.10;1.00
8253;DHT22;61313;48.396;10.008;2022-11-14T16:05:13;12.00;1.00
8253;DHT22;61313;48.396;10.008;2022-11-14T16:07:40;12.00;1.00
8253;DHT22;61313;48.396;10.008;2022-11-14T16:10:17;12.00;1.00
8253;DHT22;61313;48.396;10.008;2022-11-14T16:12:42;11.90;1.00
8253;DHT22;61313;48.396;10.008;2022-11-14T16:15:08;12.00;1.00
8253;DHT22;61313;48.396;10.008;2022-11-14T16:17:37;12.00;99.90
8253;DHT22;61313;48.396;10.008;2022-11-14T16:20:05;12.00;99.90
8253;DHT22;61313;48.396;10.008;2022-11-14T16:22:31;12.00;1.00
8253;DHT22;61313;48.396;10.008;2022-11-14T16:24:58;12.00;1.00
8253;DHT22;61313;48.396;10.008;2022-11-14T16:27:25;11.90;1.00
8253;DHT22;61313;48.396;10.008;2022-11-14T16:29:51;12.00;1.00
8253;DHT22;61313;48.396;10.008;2022-11-14T16:32:17;12.00;1.00
8253;DHT22;61313;48.396;10.008;2022-11-14T16:34:43;12.00;99.90
8253;DHT22;61313;48.396;10.008;2022-11-14T16:37:11;12.00;99.90
8253;DHT22;61313;48.396;10.008;2022-11-14T16:39:37;12.00;1.00
8253;DHT22;61313;48.396;10.008;2022-11-14T16:42:03;12.10;1.00
8253;DHT22;61313;48.396;10.008;2022-11-14T16:44:29;12.00;1.00
8253;DHT22;61313;48.396;10.008;2022-11-14T16:46:55;12.00;1.00
8253;DHT22;61313;48.396;10.008;2022-11-14T16:49:21;12.00;1.00
8253;DHT22;61313;48.396;10.008;2022-11-14T16:51:48;12.00;1.00
8253;DHT22;61313;48.396;10.008;2022-11-14T16:54:17;12.20;99.90
8253;DHT22;61313;48.396;10.008;2022-11-14T16:56:44;12.90;1.00
8253;DHT22;61313;48.396;10.008;2022-11-14T16:59:10;13.40;1.00
8253;DHT22;61313;48.396;10.008;2022-11-14T17:01:37;13.50;1.00
8253;DHT22;61313;48.396;10.008;2022-11-14T17:04:03;13.60;1.00
8253;DHT22;61313;48.396;10.008;2022-11-14T17:06:29;12.90;99.90
8253;DHT22;61313;48.396;10.008;2022-11-14T17:08:58;12.40;99.90
8253;DHT22;61313;48.396;10.008;2022-11-14T17:11:24;12.20;99.90
8253;DHT22;61313;48.396;10.008;2022-11-14T17:13:51;12.00;99.90
8253;DHT22;61313;48.396;10.008;2022-11-14T17:16:17;11.90;99.90
8253;DHT22;61313;48.396;10.008;2022-11-14T17:18:42;11.90;99.90
8253;DHT22;61313;48.396;10.008;2022-11-14T17:21:10;11.80;99.90
8253;DHT22;61313;48.396;10.008;2022-11-14T17:23:36;11.80;1.00
8253;DHT22;61313;48.396;10.008;2022-11-14T17:26:06;11.70;1.00
8253;DHT22;61313;48.396;10.008;2022-11-14T17:28:33;11.70;1.00
8253;DHT22;61313;48.396;10.008;2022-11-14T17:30:58;11.60;1.00
8253;DHT22;61313;48.396;10.008;2022-11-14T17:33:24;11.50;1.00
8253;DHT22;61313;48.396;10.008;2022-11-14T17:35:50;11.60;1.00
8253;DHT22;61313;48.396;10.008;2022-11-14T17:38:16;11.60;1.00
8253;DHT22;61313;48.396;10.008;2022-11-14T17:40:41;11.60;1.00
8253;DHT22;61313;48.396;10.008;2022-11-14T17:43:07;11.60;1.00
8253;DHT22;61313;48.396;10.008;2022-11-14T17:45:33;11.50;1.00
8253;DHT22;61313;48.396;10.008;2022-11-14T17:47:58;11.50;1.00
8253;DHT22;61313;48.396;10.008;2022-11-14T17:50:24;11.50;1.00
8253;DHT22;61313;48.396;10.008;2022-11-14T17:52:50;11.40;1.00
8253;DHT22;61313;48.396;10.008;2022-11-14T17:55:15;11.40;1.00
8253;DHT22;61313;48.396;10.008;2022-11-14T17:57:41;11.40;1.00
8253;DHT22;61313;48.396;10.008;2022-11-14T18:00:07;11.40;1.00
8253;DHT22;61313;48.396;10.008;2022-11-14T18:02:33;11.40;1.00
8253;DHT22;61313;48.396;10.008;2022-11-14T18:04:59;11.50;1.00
8253;DHT22;61313;48.396;10.008;2022-11-14T18:07:25;11.50;1.00
8253;DHT22;61313;48.396;10.008;2022-11-14T18:09:50;11.50;1.00
8253;DHT22;61313;48.396;10.008;2022-11-14T18:12:16;11.50;1.00
8253;DHT22;61313;48.396;10.008;2022-11-14T18:14:42;11.50;1.00
8253;DHT22;61313;48.396;10.008;2022-11-14T18:17:07;11.50;1.00
8253;DHT22;61313;48.396;10.008;2022-11-14T18:19:33;11.50;1.00